Time;durP1;ratioP1;P1;durP2;ratioP2;P2;SDS_P1;SDS_P2;PMS_P1;PMS_P2;Temp;Humidity;BMP_temperature;BMP_pressure;BME280_temperature;BME280_humidity;BME280_pressure;Samples;Min_cycle;Max_cycle;Signal;HPM_P1;HPM_P2
2022/09/27 00:00:17;;;;;;;9.73;8.77;;;;;;;9.88;100.00;99128.34;5032032;28;20220;-45
2022/09/27 00:02:44;;;;;;;10.43;9.50;;;;;;;9.90;100.00;99120.22;5024648;28;20180;-45
2022/09/27 00:05:09;;;;;;;11.23;10.13;;;;;;;9.84;100.00;99113.44;5029107;28;20340;-44
2022/09/27 00:07:35;;;;;;;12.50;11.05;;;;;;;9.84;100.00;99124.16;5013663;28;20230;-44
2022/09/27 00:10:01;;;;;;;11.68;10.38;;;;;;;9.88;100.00;99116.78;5029016;28;20214;-45
2022/09/27 00:12:27;;;;;;;12.02;10.48;;;;;;;9.83;100.00;99119.75;5017849;28;20184;-45
2022/09/27 00:14:52;;;;;;;11.73;10.50;;;;;;;9.84;100.00;99120.63;5031516;28;20164;-43
2022/09/27 00:17:18;;;;;;;12.10;10.90;;;;;;;9.85;100.00;99117.84;5022688;28;20263;-43
2022/09/27 00:19:43;;;;;;;12.73;11.23;;;;;;;9.89;100.00;99116.69;5015520;28;20730;-44
2022/09/27 00:22:09;;;;;;;11.85;10.85;;;;;;;9.86;100.00;99124.91;5024922;28;20619;-45
2022/09/27 00:24:34;;;;;;;12.98;11.50;;;;;;;9.87;100.00;99110.56;5021901;28;20589;-45
2022/09/27 00:27:00;;;;;;;13.75;11.88;;;;;;;9.83;100.00;99106.38;5023998;28;20180;-42
2022/09/27 00:29:26;;;;;;;13.18;11.98;;;;;;;9.82;100.00;99104.66;5017949;28;20223;-44
2022/09/27 00:31:51;;;;;;;13.00;11.70;;;;;;;9.87;100.00;99105.22;5014222;28;20184;-44
2022/09/27 00:34:20;;;;;;;12.68;11.68;;;;;;;9.84;100.00;99100.06;5019650;28;20184;-44
2022/09/27 00:36:45;;;;;;;12.50;11.40;;;;;;;9.85;100.00;99104.47;5019945;28;20189;-41
2022/09/27 00:39:11;;;;;;;13.60;12.40;;;;;;;9.85;100.00;99090.22;5018622;28;20263;-42
2022/09/27 00:41:37;;;;;;;14.45;13.05;;;;;;;9.87;100.00;99099.88;5018438;28;20180;-41
2022/09/27 00:44:22;;;;;;;13.73;12.35;;;;;;;9.86;100.00;99102.63;5021800;28;20181;-45
2022/09/27 00:46:55;;;;;;;14.50;13.00;;;;;;;9.85;100.00;99095.59;5013481;28;20188;-46
2022/09/27 00:49:35;;;;;;;15.40;13.93;;;;;;;9.85;100.00;99093.75;5015374;28;20231;-45
2022/09/27 00:52:12;;;;;;;14.40;12.90;;;;;;;9.86;100.00;99091.94;5015054;28;20188;-43
2022/09/27 00:54:43;;;;;;;14.07;12.68;;;;;;;9.85;100.00;99092.91;5013457;28;20191;-44
2022/09/27 00:57:09;;;;;;;13.57;12.27;;;;;;;9.83;100.00;99089.47;5020733;28;20655;-45
2022/09/27 00:59:42;;;;;;;13.77;12.48;;;;;;;9.82;100.00;99085.09;5015315;28;20275;-45
2022/09/27 01:02:09;;;;;;;13.77;12.48;;;;;;;9.83;100.00;99079.63;5016348;28;20200;-43
2022/09/27 01:04:37;;;;;;;14.40;12.23;;;;;;;9.81;100.00;99078.84;5014279;28;20169;-45
2022/09/27 01:07:03;;;;;;;13.55;12.27;;;;;;;9.83;100.00;99073.41;5019717;28;20185;-45
2022/09/27 01:09:29;;;;;;;13.23;11.93;;;;;;;9.83;100.00;99076.09;5020252;28;20742;-45
2022/09/27 01:12:27;;;;;;;14.25;12.85;;;;;;;9.79;100.00;99072.75;5014642;28;20204;-45
2022/09/27 01:15:11;;;;;;;13.68;12.38;;;;;;;9.77;100.00;99077.31;5019867;28;20241;-45
2022/09/27 01:17:58;;;;;;;12.57;11.48;;;;;;;9.84;100.00;99067.13;5033144;28;20176;-45
2022/09/27 01:20:52;;;;;;;13.13;11.93;;;;;;;9.80;100.00;99070.94;5017782;28;20722;-45
2022/09/27 01:23:40;;;;;;;14.38;10.68;;;;;;;9.77;100.00;99069.31;5019084;28;20209;-43
2022/09/27 01:26:21;;;;;;;11.95;10.85;;;;;;;9.82;100.00;99064.53;5020121;28;20755;-44
2022/09/27 01:28:47;;;;;;;13.27;11.45;;;;;;;9.79;100.00;99064.72;5014915;28;20184;-43
2022/09/27 01:31:27;;;;;;;12.40;11.25;;;;;;;9.79;100.00;99067.41;5013494;28;20243;-43
2022/09/27 01:34:02;;;;;;;12.23;11.00;;;;;;;9.78;100.00;99065.69;5031278;28;20211;-41
2022/09/27 01:36:35;;;;;;;11.98;10.77;;;;;;;9.82;100.00;99059.19;5030917;28;20247;-43
2022/09/27 01:39:07;;;;;;;12.75;11.63;;;;;;;9.80;100.00;99058.44;5019302;28;20188;-41
2022/09/27 01:41:59;;;;;;;12.63;10.80;;;;;;;9.85;100.00;99067.00;5022834;28;20275;-45
2022/09/27 01:44:42;;;;;;;13.23;10.75;;;;;;;9.83;100.00;99063.56;5029159;28;20568;-43
2022/09/27 01:47:19;;;;;;;10.55;9.45;;;;;;;9.88;100.00;99061.47;5024642;28;20207;-43
2022/09/27 01:49:59;;;;;;;11.50;10.40;;;;;;;9.84;100.00;99065.31;5017541;28;20299;-43
2022/09/27 01:52:36;;;;;;;11.18;9.95;;;;;;;9.85;100.00;99061.66;5019231;28;20219;-41
2022/09/27 01:55:07;;;;;;;11.52;10.50;;;;;;;9.81;100.00;99057.47;5016705;28;20608;-42
2022/09/27 01:58:01;;;;;;;12.20;10.95;;;;;;;9.84;100.00;99049.25;4988093;28;20195;-43
2022/09/27 02:00:27;;;;;;;12.65;11.07;;;;;;;9.80;100.00;99042.38;5013427;28;20322;-43
2022/09/27 02:03:17;;;;;;;10.48;9.48;;;;;;;9.84;100.00;99043.91;5017862;28;20199;-43
2022/09/27 02:06:09;;;;;;;11.15;10.15;;;;;;;9.85;100.00;99044.75;5018730;28;20291;-43
2022/09/27 02:09:15;;;;;;;11.40;10.30;;;;;;;9.85;100.00;99042.94;5014013;28;20191;-45
2022/09/27 02:12:03;;;;;;;10.73;9.65;;;;;;;9.83;100.00;99034.16;5029017;28;20184;-43
2022/09/27 02:14:36;;;;;;;13.98;10.30;;;;;;;9.84;100.00;99033.22;5018697;28;20191;-43
2022/09/27 02:17:22;;;;;;;10.90;9.90;;;;;;;9.89;100.00;99031.09;5016697;28;20191;-43
2022/09/27 02:20:11;;;;;;;10.00;9.20;;;;;;;9.83;100.00;99036.81;5011983;28;20208;-43
2022/09/27 02:23:16;;;;;;;10.52;9.55;;;;;;;9.84;100.00;99038.56;5032203;28;20192;-42
2022/09/27 02:25:54;;;;;;;11.32;10.23;;;;;;;9.82;100.00;99039.63;5027720;28;20188;-44
2022/09/27 02:29:01;;;;;;;11.50;10.32;;;;;;;9.85;100.00;99036.72;5019883;28;20561;-43
2022/09/27 02:31:33;;;;;;;10.90;9.90;;;;;;;9.78;100.00;99038.94;4929295;28;20252;-43
2022/09/27 02:34:07;;;;;;;10.88;9.88;;;;;;;9.79;100.00;99032.63;4961877;28;20609;-44
2022/09/27 02:36:33;;;;;;;9.20;8.30;;;;;;;9.83;100.00;99023.44;4984359;28;20184;-45
2022/09/27 02:39:00;;;;;;;10.13;9.23;;;;;;;9.81;100.00;99022.69;5022531;28;20187;-45
2022/09/27 02:41:27;;;;;;;11.00;9.90;;;;;;;9.79;100.00;99018.41;5020202;28;20723;-44
2022/09/27 02:43:56;;;;;;;10.18;9.38;;;;;;;9.77;100.00;99023.84;5019618;28;20267;-45
2022/09/27 02:46:47;;;;;;;10.07;9.13;;;;;;;9.73;100.00;99025.00;5027001;28;20191;-45
2022/09/27 02:49:32;;;;;;;9.95;9.05;;;;;;;9.77;100.00;99022.97;5018548;28;20227;-46
2022/09/27 02:52:32;;;;;;;9.10;8.30;;;;;;;9.71;100.00;99021.59;5027974;28;20215;-45
2022/09/27 02:55:16;;;;;;;9.45;8.70;;;;;;;9.75;100.00;99015.09;5029226;28;20646;-44
2022/09/27 02:58:27;;;;;;;9.48;8.65;;;;;;;9.75;100.00;99009.72;4994084;28;20232;-44
2022/09/27 03:01:14;;;;;;;10.07;9.05;;;;;;;9.72;100.00;99004.56;5016720;28;20233;-44
2022/09/27 03:04:12;;;;;;;9.95;8.55;;;;;;;9.71;100.00;99013.56;5020719;28;20667;-42
2022/09/27 03:06:42;;;;;;;9.43;8.45;;;;;;;9.76;100.00;99007.91;5019070;28;20180;-45
2022/09/27 03:09:18;;;;;;;10.10;8.27;;;;;;;9.69;100.00;99008.28;5015403;28;20181;-44
2022/09/27 03:11:44;;;;;;;8.52;7.75;;;;;;;9.68;100.00;99000.38;5016718;28;20293;-43
2022/09/27 03:14:10;;;;;;;8.48;7.78;;;;;;;9.73;100.00;98997.41;5019716;28;20699;-45
2022/09/27 03:16:42;;;;;;;8.52;7.82;;;;;;;9.69;100.00;99010.13;5017266;28;20199;-44
2022/09/27 03:19:28;;;;;;;11.80;7.82;;;;;;;9.67;100.00;98996.00;5011586;28;20221;-42
2022/09/27 03:22:31;;;;;;;8.55;7.82;;;;;;;9.66;100.00;99004.94;5019993;28;20238;-42
2022/09/27 03:24:57;;;;;;;8.75;7.95;;;;;;;9.63;100.00;99000.66;5026011;28;20563;-44
2022/09/27 03:27:23;;;;;;;8.73;7.97;;;;;;;9.63;100.00;99002.47;5011913;28;20187;-43
2022/09/27 03:29:48;;;;;;;8.93;8.13;;;;;;;9.62;100.00;98996.28;5019585;28;20266;-45
2022/09/27 03:32:15;;;;;;;9.00;8.25;;;;;;;9.66;100.00;98994.25;5023659;28;20239;-44
2022/09/27 03:34:59;;;;;;;8.05;7.45;;;;;;;9.74;100.00;98983.94;5014600;28;20208;-44
2022/09/27 03:37:28;;;;;;;8.43;7.78;;;;;;;9.64;100.00;98974.78;5019452;28;20177;-44
2022/09/27 03:39:53;;;;;;;8.38;7.63;;;;;;;9.62;100.00;98980.25;5022975;28;20204;-41
2022/09/27 03:42:19;;;;;;;8.48;7.68;;;;;;;9.63;100.00;98983.75;5023216;28;20314;-42
2022/09/27 03:44:50;;;;;;;9.00;8.30;;;;;;;9.60;100.00;98975.91;5008692;28;20189;-43
2022/09/27 03:47:16;;;;;;;8.63;7.88;;;;;;;9.59;100.00;98983.09;5016213;28;20560;-42
2022/09/27 03:49:42;;;;;;;9.40;8.60;;;;;;;9.62;100.00;98980.25;5023341;28;20266;-43
2022/09/27 03:52:07;;;;;;;8.93;8.18;;;;;;;9.62;100.00;98988.25;5021580;28;20176;-42
2022/09/27 03:54:33;;;;;;;8.85;8.15;;;;;;;9.62;100.00;98980.25;5028462;28;20518;-45
2022/09/27 03:56:58;;;;;;;8.77;8.10;;;;;;;9.61;100.00;98966.97;5024916;28;20188;-41
2022/09/27 03:59:24;;;;;;;8.90;8.13;;;;;;;9.61;100.00;98978.50;5025265;28;20212;-43
2022/09/27 04:02:12;;;;;;;8.80;8.00;;;;;;;9.57;100.00;98974.31;5019503;28;20189;-43
2022/09/27 04:04:58;;;;;;;8.68;7.45;;;;;;;9.62;100.00;98971.34;5020732;28;20219;-44
2022/09/27 04:07:23;;;;;;;9.35;8.55;;;;;;;9.60;100.00;98979.47;5024110;28;20265;-43
2022/09/27 04:09:49;;;;;;;8.70;7.90;;;;;;;9.62;100.00;98974.91;5022625;28;20215;-43
2022/09/27 04:12:15;;;;;;;9.27;8.48;;;;;;;9.58;100.00;98975.19;5024213;28;20582;-43
2022/09/27 04:14:41;;;;;;;8.63;7.93;;;;;;;9.56;100.00;98969.09;5018972;28;20180;-43
2022/09/27 04:17:26;;;;;;;8.18;7.47;;;;;;;9.58;100.00;98965.34;5022154;28;20195;-43
2022/09/27 04:20:11;;;;;;;7.95;7.30;;;;;;;9.61;100.00;98965.13;5018307;28;20270;-42
2022/09/27 04:22:42;;;;;;;12.35;8.38;;;;;;;9.58;100.00;98969.84;5023849;28;20246;-43
2022/09/27 04:25:08;;;;;;;7.90;7.20;;;;;;;9.53;100.00;98963.91;5025337;28;20670;-43
2022/09/27 04:27:37;;;;;;;7.25;6.75;;;;;;;9.52;100.00;98968.41;5013231;28;20866;-43
2022/09/27 04:30:05;;;;;;;7.75;7.05;;;;;;;9.51;100.00;98969.38;5020392;28;20232;-42
2022/09/27 04:32:50;;;;;;;7.45;6.90;;;;;;;9.49;100.00;98965.94;5015785;28;20193;-44
2022/09/27 04:38:39;;;;;;;8.02;6.85;;;;;;;9.53;100.00;98974.59;4970207;28;20189;-42
2022/09/27 04:41:06;;;;;;;7.65;7.05;;;;;;;9.52;100.00;98970.22;5018571;28;20243;-42
2022/09/27 04:43:35;;;;;;;8.07;7.38;;;;;;;9.54;100.00;98971.84;5023519;28;20255;-42
2022/09/27 04:46:02;;;;;;;7.78;7.18;;;;;;;9.54;100.00;98979.00;5020546;28;20188;-42
2022/09/27 04:48:28;;;;;;;8.52;7.72;;;;;;;9.51;100.00;98985.41;5016578;28;20196;-43
2022/09/27 04:50:58;;;;;;;8.82;8.13;;;;;;;9.51;100.00;98966.72;5023059;28;20253;-43
2022/09/27 04:53:23;;;;;;;7.80;7.15;;;;;;;9.49;100.00;98980.16;5024000;28;20529;-42
2022/09/27 04:55:52;;;;;;;7.90;7.30;;;;;;;9.55;100.00;98978.03;5019923;28;20188;-42
2022/09/27 04:58:17;;;;;;;7.53;6.95;;;;;;;9.51;100.00;98972.06;5032185;28;20209;-43
2022/09/27 05:00:44;;;;;;;8.15;7.40;;;;;;;9.48;100.00;98975.75;5021900;28;20251;-41
2022/09/27 05:03:38;;;;;;;7.70;7.00;;;;;;;9.51;100.00;98979.19;5017473;28;20188;-44
2022/09/27 05:06:12;;;;;;;10.45;7.38;;;;;;;9.49;100.00;98973.97;5018697;28;20235;-43
2022/09/27 05:08:38;;;;;;;7.75;7.05;;;;;;;9.51;100.00;98974.72;5025586;28;20197;-43
2022/09/27 05:11:18;;;;;;;8.23;6.65;;;;;;;9.46;100.00;98985.69;5019360;28;20232;-44
2022/09/27 05:14:03;;;;;;;6.68;6.18;;;;;;;9.40;100.00;98969.19;5014800;28;20231;-42
2022/09/27 05:16:32;;;;;;;7.15;6.60;;;;;;;9.44;100.00;98976.06;5021132;28;20498;-43
2022/09/27 05:19:18;;;;;;;6.95;6.35;;;;;;;9.41;100.00;98977.09;4981714;28;20219;-43
2022/09/27 05:22:03;;;;;;;6.47;5.88;;;;;;;9.44;100.00;98968.03;5021503;28;20299;-42
2022/09/27 05:24:31;;;;;;;6.90;6.15;;;;;;;9.45;100.00;98977.78;5026293;28;20374;-44
2022/09/27 05:26:56;;;;;;;6.60;6.07;;;;;;;9.38;100.00;98979.09;5014866;28;20611;-43
2022/09/27 05:29:22;;;;;;;7.05;6.10;;;;;;;9.43;100.00;98977.88;5013363;28;20291;-42
2022/09/27 05:32:02;;;;;;;6.53;5.93;;;;;;;9.44;100.00;98976.06;5016092;28;20183;-41
2022/09/27 05:34:30;;;;;;;6.47;5.97;;;;;;;9.38;100.00;98974.63;5025008;28;20187;-41
2022/09/27 05:36:57;;;;;;;6.13;5.63;;;;;;;9.37;100.00;98974.72;5016517;28;20280;-43
2022/09/27 05:39:23;;;;;;;5.93;5.43;;;;;;;9.37;100.00;98978.25;5026679;28;20216;-45
2022/09/27 05:41:49;;;;;;;6.20;5.70;;;;;;;9.41;100.00;98970.91;5020900;28;20650;-44
2022/09/27 05:44:15;;;;;;;6.72;6.22;;;;;;;9.36;100.00;98975.66;5020780;28;20609;-45
2022/09/27 05:46:49;;;;;;;7.15;6.55;;;;;;;9.39;100.00;98970.16;5018888;28;20717;-42
2022/09/27 05:49:14;;;;;;;6.53;6.03;;;;;;;9.38;100.00;98974.63;5020378;28;20345;-42
2022/09/27 05:51:40;;;;;;;7.00;6.40;;;;;;;9.39;100.00;98973.66;5026162;28;20206;-43
2022/09/27 05:54:06;;;;;;;6.68;6.07;;;;;;;9.35;100.00;98977.50;5015489;28;20181;-42
2022/09/27 05:56:32;;;;;;;6.60;6.03;;;;;;;9.38;100.00;98971.97;5020820;28;20191;-42
2022/09/27 05:59:16;;;;;;;6.00;5.50;;;;;;;9.40;100.00;98985.22;5015598;28;20215;-48
2022/09/27 06:02:11;;;;;;;7.75;5.88;;;;;;;9.37;100.00;98974.72;5019611;28;20730;-47
2022/09/27 06:04:55;;;;;;;5.93;5.50;;;;;;;9.36;100.00;98978.34;5017447;28;20419;-47
2022/09/27 06:07:39;;;;;;;6.45;5.85;;;;;;;9.39;100.00;98984.38;5024082;28;20180;-48
2022/09/27 06:10:09;;;;;;;6.28;5.78;;;;;;;9.40;100.00;98979.88;5017121;28;20583;-47
2022/09/27 06:12:35;;;;;;;6.20;5.70;;;;;;;9.45;100.00;98985.81;5013997;28;20189;-47
2022/09/27 06:15:05;;;;;;;6.13;5.68;;;;;;;9.41;100.00;98973.59;5019034;28;20176;-48
2022/09/27 06:17:37;;;;;;;6.03;5.57;;;;;;;9.49;100.00;98981.97;5015646;28;20184;-47
2022/09/27 06:20:12;;;;;;;6.55;5.95;;;;;;;9.50;100.00;98975.66;5019570;28;20212;-46
2022/09/27 06:22:38;;;;;;;5.45;5.05;;;;;;;9.61;100.00;98983.84;5018394;28;20600;-47
2022/09/27 06:25:04;;;;;;;6.50;6.00;;;;;;;9.58;100.00;98988.56;5011963;28;20197;-49
2022/09/27 06:27:34;;;;;;;6.35;5.78;;;;;;;9.57;100.00;98987.69;4930869;28;20200;-49
2022/09/27 06:30:05;;;;;;;7.03;6.30;;;;;;;9.60;100.00;98984.81;5019649;28;20207;-47
2022/09/27 06:32:46;;;;;;;7.10;6.45;;;;;;;9.56;100.00;98982.44;5013062;28;20250;-48
2022/09/27 06:35:18;;;;;;;6.43;5.93;;;;;;;9.59;100.00;98979.56;5021517;28;20238;-48
2022/09/27 06:37:43;;;;;;;7.03;6.43;;;;;;;9.64;100.00;98972.09;5025175;28;20192;-47
2022/09/27 06:40:09;;;;;;;6.72;6.22;;;;;;;9.67;100.00;98979.94;5019763;28;20307;-46
2022/09/27 06:42:53;;;;;;;7.15;6.55;;;;;;;9.61;100.00;98985.69;5010933;28;20611;-47
2022/09/27 06:45:36;;;;;;;6.93;6.32;;;;;;;9.59;100.00;98988.44;5012558;28;20278;-49
2022/09/27 06:48:31;;;;;;;6.88;6.38;;;;;;;9.66;100.00;98988.91;5020004;28;20724;-47
2022/09/27 06:51:08;;;;;;;7.05;6.45;;;;;;;9.64;100.00;98988.16;5022125;28;20211;-48
2022/09/27 06:53:35;;;;;;;7.47;6.88;;;;;;;9.62;100.00;98984.72;5004331;28;20242;-48
2022/09/27 06:56:01;;;;;;;7.28;6.65;;;;;;;9.67;100.00;98990.63;5014482;28;20196;-47
2022/09/27 07:01:35;;;;;;;7.00;6.40;;;;;;;9.65;100.00;98997.91;5016586;28;20342;-48
2022/09/27 07:04:19;;;;;;;7.43;6.72;;;;;;;9.65;100.00;98998.75;5017790;28;20728;-47
2022/09/27 07:06:59;;;;;;;6.47;5.97;;;;;;;9.73;100.00;98984.91;5024276;28;20658;-48
2022/09/27 07:09:29;;;;;;;7.60;6.90;;;;;;;9.70;100.00;98999.31;5022622;28;20200;-47
2022/09/27 07:11:54;;;;;;;6.68;6.18;;;;;;;9.66;100.00;99000.47;5019440;28;20185;-47
2022/09/27 07:14:20;;;;;;;7.32;6.72;;;;;;;9.62;100.00;99004.31;5018157;28;20237;-47
2022/09/27 07:16:47;;;;;;;7.82;7.10;;;;;;;9.66;100.00;98994.25;5023280;28;20181;-47
2022/09/27 07:19:14;;;;;;;7.05;6.55;;;;;;;9.76;100.00;99003.41;5032688;28;20516;-45
2022/09/27 07:21:39;;;;;;;8.48;6.82;;;;;;;9.83;100.00;98991.34;5029156;28;20176;-44
2022/09/27 07:24:05;;;;;;;7.38;6.78;;;;;;;9.90;100.00;98999.84;5028838;28;20386;-44
2022/09/27 07:26:31;;;;;;;7.85;7.05;;;;;;;9.99;100.00;99001.06;5009852;28;20184;-45
2022/09/27 07:28:58;;;;;;;8.25;7.55;;;;;;;9.98;100.00;99000.22;5021575;28;20198;-44
2022/09/27 07:31:28;;;;;;;7.53;6.80;;;;;;;10.07;100.00;99009.44;5017581;28;20177;-43
2022/09/27 07:33:54;;;;;;;7.90;7.20;;;;;;;10.09;100.00;99007.53;5018023;28;20177;-44
2022/09/27 07:36:20;;;;;;;7.72;7.10;;;;;;;10.13;100.00;99003.69;5027421;28;20171;-45
2022/09/27 07:38:46;;;;;;;7.78;7.07;;;;;;;10.14;100.00;99005.41;5028615;28;20180;-44
2022/09/27 07:41:14;;;;;;;8.10;7.30;;;;;;;10.14;100.00;99004.56;5028628;28;20211;-45
2022/09/27 07:43:41;;;;;;;8.30;7.53;;;;;;;10.15;100.00;99007.13;5020677;28;20207;-45
2022/09/27 07:46:07;;;;;;;7.57;6.88;;;;;;;10.27;100.00;99010.81;5028616;28;20239;-45
2022/09/27 07:48:50;;;;;;;6.38;5.78;;;;;;;10.17;100.00;99009.72;5014053;28;20196;-45
2022/09/27 07:51:32;;;;;;;6.10;5.50;;;;;;;10.30;100.00;98999.94;5010238;28;20231;-43
2022/09/27 07:54:05;;;;;;;5.70;4.80;;;;;;;10.27;100.00;99008.97;5024217;28;20242;-43
2022/09/27 07:56:50;;;;;;;7.45;3.97;;;;;;;10.36;100.00;99007.53;4981790;28;20192;-44
2022/09/27 07:59:19;;;;;;;5.88;3.40;;;;;;;10.54;100.00;99018.00;5023876;28;20290;-42
2022/09/27 08:01:45;;;;;;;6.95;3.30;;;;;;;10.71;100.00;99010.56;5014051;28;20271;-44
2022/09/27 08:04:11;;;;;;;11.02;3.65;;;;;;;10.72;100.00;99006.91;5028080;28;20180;-42
2022/09/27 08:06:36;;;;;;;10.73;3.65;;;;;;;10.75;100.00;99010.34;5029557;28;20195;-45
2022/09/27 08:09:08;;;;;;;9.80;3.38;;;;;;;10.61;100.00;99008.59;5028639;28;20255;-44
2022/09/27 08:11:36;;;;;;;9.32;2.95;;;;;;;10.71;100.00;99009.66;5036709;28;20246;-43
2022/09/27 08:14:03;;;;;;;13.88;3.70;;;;;;;10.64;100.00;99003.88;5032607;28;20180;-42
2022/09/27 08:16:34;;;;;;;9.82;2.83;;;;;;;10.57;100.00;99018.66;5012574;28;20280;-43
2022/09/27 08:19:11;;;;;;;10.20;2.80;;;;;;;10.77;100.00;99011.94;5009811;28;20177;-43
2022/09/27 08:22:03;;;;;;;8.13;3.33;;;;;;;10.86;100.00;99013.97;5026552;28;20183;-42
2022/09/27 08:24:43;;;;;;;11.73;3.55;;;;;;;10.70;100.00;99016.00;5029695;28;20176;-42
2022/09/27 08:27:37;;;;;;;9.63;2.95;;;;;;;10.77;100.00;99019.97;4959555;28;20593;-45
2022/09/27 08:30:16;;;;;;;6.35;2.97;;;;;;;10.82;100.00;99012.50;5021890;28;20204;-44
2022/09/27 08:32:43;;;;;;;9.68;3.20;;;;;;;10.81;100.00;99029.53;5031389;28;20286;-43
2022/09/27 08:35:09;;;;;;;12.35;3.55;;;;;;;10.66;100.00;99017.19;5029778;28;20592;-42
2022/09/27 08:37:34;;;;;;;9.75;3.83;;;;;;;10.73;100.00;99023.81;5020908;28;20176;-44
2022/09/27 08:40:02;;;;;;;10.27;3.15;;;;;;;10.71;100.00;99023.94;5011738;28;20213;-43
2022/09/27 08:42:55;;;;;;;12.90;3.42;;;;;;;10.63;100.00;99023.59;5022875;28;20682;-41
2022/09/27 08:45:39;;;;;;;7.97;3.03;;;;;;;10.76;100.00;99017.41;5012560;28;20198;-42
2022/09/27 08:48:09;;;;;;;12.32;3.13;;;;;;;10.75;100.00;99019.22;5028141;28;20180;-44
2022/09/27 08:50:36;;;;;;;8.63;3.00;;;;;;;10.79;100.00;99022.56;5015912;28;20303;-47
2022/09/27 08:53:19;;;;;;;9.48;2.85;;;;;;;10.79;100.00;99015.38;5030756;28;20187;-43
2022/09/27 08:55:51;;;;;;;14.38;2.90;;;;;;;10.69;100.00;99025.88;5026718;28;20225;-44
2022/09/27 08:58:34;;;;;;;12.80;3.10;;;;;;;10.61;100.00;99024.66;5022645;28;20669;-43
2022/09/27 09:01:08;;;;;;;8.43;2.53;;;;;;;10.71;100.00;99020.38;5020873;28;20707;-45
2022/09/27 09:03:49;;;;;;;11.48;3.00;;;;;;;10.73;100.00;99013.09;5012728;28;20184;-45
2022/09/27 09:06:41;;;;;;;15.18;3.90;;;;;;;10.75;100.00;99029.94;5031238;28;20160;-42
2022/09/27 09:09:26;;;;;;;9.98;2.58;;;;;;;10.90;100.00;99028.03;5020930;28;20651;-44
2022/09/27 09:15:53;;;;;;;11.77;2.60;;;;;;;11.04;100.00;99022.59;5012442;28;20327;-42
2022/09/27 09:18:31;;;;;;;15.85;3.63;;;;;;;10.88;100.00;99029.97;5024723;28;20175;-40
2022/09/27 09:21:30;;;;;;;11.73;3.15;;;;;;;10.74;100.00;99024.72;5028120;28;20215;-44
2022/09/27 09:24:44;;;;;;;13.05;2.67;;;;;;;10.83;100.00;99029.44;4994801;28;20176;-44
2022/09/27 09:27:12;;;;;;;14.40;3.20;;;;;;;10.78;100.00;99029.75;4959233;28;20313;-43
2022/09/27 09:29:58;;;;;;;8.90;2.67;;;;;;;10.98;100.00;99036.41;5023123;28;20322;-42
2022/09/27 09:32:38;;;;;;;11.82;3.17;;;;;;;10.95;100.00;99041.13;5030703;28;20201;-42
2022/09/27 09:35:30;;;;;;;13.57;2.55;;;;;;;11.08;100.00;99036.63;5029719;28;20179;-43
2022/09/27 09:38:00;;;;;;;14.43;3.65;;;;;;;11.02;100.00;99040.59;5016674;28;20560;-41
2022/09/27 09:40:33;;;;;;;11.80;3.08;;;;;;;11.02;100.00;99040.59;4996689;28;20204;-41
2022/09/27 09:43:02;;;;;;;11.27;2.75;;;;;;;11.12;100.00;99036.31;5015341;28;20249;-44
2022/09/27 09:45:33;;;;;;;10.15;2.78;;;;;;;11.30;100.00;99036.00;5026938;28;20192;-46
2022/09/27 09:48:26;;;;;;;11.65;2.85;;;;;;;11.41;100.00;99030.72;5018320;28;20192;-43
2022/09/27 09:50:56;;;;;;;7.85;2.10;;;;;;;11.07;100.00;99029.56;5010705;28;20240;-41
2022/09/27 09:53:36;;;;;;;6.45;2.17;;;;;;;11.23;100.00;99037.38;5010309;28;20184;-43
2022/09/27 09:56:06;;;;;;;8.70;2.38;;;;;;;11.20;100.00;99033.09;5010520;28;20212;-44
2022/09/27 09:58:42;;;;;;;12.15;3.40;;;;;;;11.17;100.00;99032.44;5010305;28;20222;-41
2022/09/27 10:01:18;;;;;;;9.23;2.75;;;;;;;11.26;100.00;99031.81;5028041;28;20315;-43
2022/09/27 10:03:44;;;;;;;6.78;2.13;;;;;;;11.24;100.00;99031.94;5028286;28;20180;-43
2022/09/27 10:06:11;;;;;;;9.55;2.80;;;;;;;11.21;100.00;99040.16;5017332;28;20180;-43
2022/09/27 10:08:38;;;;;;;9.27;2.22;;;;;;;11.07;100.00;99034.94;5024644;28;20643;-43
2022/09/27 10:11:30;;;;;;;13.85;2.83;;;;;;;11.08;100.00;99050.88;5009961;28;20248;-41
2022/09/27 10:14:19;;;;;;;10.52;2.97;;;;;;;11.08;100.00;99040.16;5039979;28;20183;-43
2022/09/27 10:16:48;;;;;;;11.68;2.85;;;;;;;10.95;100.00;99036.59;5010304;28;20180;-43
2022/09/27 10:19:25;;;;;;;13.15;2.85;;;;;;;11.01;100.00;99040.69;5013536;28;20184;-43
2022/09/27 10:21:51;;;;;;;12.10;2.95;;;;;;;10.95;100.00;99043.78;5012729;28;20184;-42
2022/09/27 10:24:18;;;;;;;9.80;2.22;;;;;;;10.90;100.00;99046.78;5024097;28;20280;-44
2022/09/27 10:27:09;;;;;;;7.53;2.00;;;;;;;10.97;100.00;99039.19;5019933;28;20196;-41
2022/09/27 10:29:38;;;;;;;9.00;2.33;;;;;;;11.10;100.00;99042.75;5020967;28;20213;-44
2022/09/27 10:32:20;;;;;;;10.10;2.42;;;;;;;11.10;100.00;99032.88;5012386;28;20587;-44
2022/09/27 10:34:47;;;;;;;9.32;1.92;;;;;;;11.14;100.00;99046.94;5038406;28;20644;-42
2022/09/27 10:37:21;;;;;;;8.38;2.30;;;;;;;11.22;100.00;99044.59;5011016;28;20193;-45
2022/09/27 10:40:28;;;;;;;7.70;2.17;;;;;;;11.30;100.00;99044.03;5022684;28;20230;-44
2022/09/27 10:42:56;;;;;;;7.80;2.15;;;;;;;11.26;100.00;99039.84;5036071;28;20180;-43
2022/09/27 10:45:31;;;;;;;10.93;2.10;;;;;;;11.20;100.00;99037.63;5023992;28;20172;-45
2022/09/27 10:48:05;;;;;;;9.02;2.08;;;;;;;11.31;100.00;99035.03;5029006;28;20228;-43
2022/09/27 10:51:00;;;;;;;6.45;2.00;;;;;;;11.29;100.00;99040.50;5029313;28;20188;-42
2022/09/27 10:53:48;;;;;;;4.90;1.48;;;;;;;11.35;100.00;99047.28;5024902;28;20202;-45
2022/09/27 10:56:29;;;;;;;5.03;1.90;;;;;;;11.37;100.00;99048.03;5029229;28;20195;-43
2022/09/27 10:58:55;;;;;;;7.18;2.50;;;;;;;11.42;100.00;99047.69;5022765;28;20265;-46
2022/09/27 11:01:23;;;;;;;3.88;1.55;;;;;;;11.28;100.00;99045.97;5043469;28;20195;-41
2022/09/27 11:04:05;;;;;;;6.68;1.30;;;;;;;11.38;100.00;99052.41;5049086;28;20170;-44
2022/09/27 11:06:37;;;;;;;3.80;1.30;;;;;;;11.32;100.00;99050.16;5047720;28;20511;-44
2022/09/27 11:09:23;;;;;;;3.97;1.35;;;;;;;11.29;100.00;99045.88;5029319;28;20191;-42
2022/09/27 11:11:49;;;;;;;5.30;1.00;;;;;;;11.32;100.00;99045.63;5017590;28;20181;-42
2022/09/27 11:14:23;;;;;;;2.85;1.02;;;;;;;11.29;100.00;99059.28;5028553;28;20176;-43
2022/09/27 11:17:06;;;;;;;3.40;1.02;;;;;;;11.49;100.00;99057.88;5028751;28;20175;-44
2022/09/27 11:19:43;;;;;;;2.67;1.08;;;;;;;11.61;100.00;99050.78;5022949;28;20650;-44
2022/09/27 11:22:18;;;;;;;2.97;1.20;;;;;;;11.63;100.00;99054.22;4993056;28;20254;-44
2022/09/27 11:25:29;;;;;;;4.15;1.05;;;;;;;11.58;100.00;99052.81;5031263;28;20673;-45
2022/09/27 11:28:32;;;;;;;8.60;1.48;;;;;;;11.71;100.00;99059.03;5020481;28;20266;-43
2022/09/27 11:31:05;;;;;;;2.58;0.85;;;;;;;11.50;100.00;99064.09;5028959;28;20196;-42
2022/09/27 11:33:53;;;;;;;2.65;1.00;;;;;;;11.67;100.00;99052.16;5028794;28;20603;-45
2022/09/27 11:36:22;;;;;;;1.83;0.90;;;;;;;11.65;100.00;99062.16;5028735;28;20445;-44
2022/09/27 11:38:48;;;;;;;2.75;0.90;;;;;;;11.38;100.00;99057.78;5028972;28;20176;-46
2022/09/27 11:41:27;;;;;;;3.67;0.80;;;;;;;11.30;100.00;99060.13;5028340;28;20758;-44
2022/09/27 11:44:05;;;;;;;7.20;1.20;;;;;;;11.26;100.00;99055.94;5039658;28;20206;-43
2022/09/27 11:46:36;;;;;;;4.05;0.88;;;;;;;11.38;100.00;99063.13;5009882;28;20204;-44
2022/09/27 11:49:18;;;;;;;9.27;1.30;;;;;;;11.49;100.00;99071.28;5023942;28;20199;-45
2022/09/27 11:51:54;;;;;;;3.70;0.95;;;;;;;11.38;100.00;99067.66;5010279;28;20192;-44
2022/09/27 11:54:29;;;;;;;2.58;1.05;;;;;;;11.45;100.00;99068.91;5025192;28;20275;-43
2022/09/27 11:57:01;;;;;;;5.72;0.98;;;;;;;11.31;100.00;99069.91;5011468;28;20242;-44
2022/09/27 11:59:48;;;;;;;3.75;1.20;;;;;;;11.50;100.00;99073.00;5024243;28;20210;-47
2022/09/27 12:02:34;;;;;;;3.65;1.30;;;;;;;11.51;100.00;99074.72;5015884;28;20176;-48
2022/09/27 12:05:19;;;;;;;2.17;0.93;;;;;;;11.31;100.00;99072.56;5028045;28;20225;-46
2022/09/27 12:08:02;;;;;;;4.13;1.27;;;;;;;11.42;100.00;99078.03;5023820;28;20192;-47
2022/09/27 12:10:28;;;;;;;4.78;1.30;;;;;;;11.52;100.00;99076.44;5015379;28;20208;-48
2022/09/27 12:12:57;;;;;;;10.95;2.33;;;;;;;11.43;100.00;99079.75;5023792;28;20187;-49